Time;durP1;ratioP1;P1;durP2;ratioP2;P2;SDS_P1;SDS_P2;PMS_P1;PMS_P2;Temp;Humidity;BMP_temperature;BMP_pressure;BME280_temperature;BME280_humidity;BME280_pressure;Samples;Min_cycle;Max_cycle;Signal;HPM_P1;HPM_P2
2021/10/05 00:03:20;;;;;;;;;;;11.90;99.90;;;11.01;100.00;95306.72;10532984;28;1973;-79
2021/10/05 00:08:23;;;;;;;;;;;12.00;99.90;;;10.91;100.00;95313.00;10543661;28;1931;-78
2021/10/05 00:13:26;;;;;;;;;;;12.00;99.90;;;10.80;100.00;95300.75;10544997;28;1848;-80
2021/10/05 00:18:30;;;;;;;;;;;11.90;99.90;;;10.70;100.00;95290.94;10545035;28;1817;-78
2021/10/05 00:23:33;;;;;;;;;;;11.80;99.90;;;10.66;100.00;95284.53;10547864;28;2278;-79
2021/10/05 00:28:36;;;;;;;;;;;11.70;99.90;;;10.58;100.00;95281.66;10548478;28;1564;-77
2021/10/05 00:33:38;;;;;;;;;;;11.70;99.90;;;10.53;100.00;95275.25;10551313;28;1926;-80
2021/10/05 00:38:41;;;;;;;;;;;11.60;99.90;;;10.55;100.00;95270.38;10553936;28;1927;-79
2021/10/05 00:43:44;;;;;;;;;;;11.60;99.90;;;10.71;100.00;95270.22;10564449;28;1917;-78
2021/10/05 00:48:47;;;;;;;;;;;11.70;99.90;;;10.63;100.00;95273.56;10551805;28;1878;-78
2021/10/05 00:53:50;;;;;;;;;;;11.70;99.90;;;10.65;100.00;95249.88;10544367;28;1885;-78
2021/10/05 00:58:53;;;;;;;;;;;11.70;99.90;;;10.61;100.00;95244.25;10544749;28;2042;-79
2021/10/05 01:03:56;;;;;;;;;;;11.70;99.90;;;10.65;100.00;95239.91;10544078;28;1902;-78
2021/10/05 01:08:59;;;;;;;;;;;11.60;99.90;;;10.61;100.00;95232.69;10544107;28;1904;-79
2021/10/05 01:14:03;;;;;;;;;;;11.70;99.90;;;10.70;100.00;95225.63;10548942;28;1848;-79
2021/10/05 01:19:06;;;;;;;;;;;11.70;99.90;;;10.73;100.00;95223.16;10542560;28;2010;-80
2021/10/05 01:24:09;;;;;;;;;;;11.70;99.90;;;10.83;100.00;95220.34;10548753;28;2477;-79
2021/10/05 01:29:12;;;;;;;;;;;11.80;99.90;;;10.82;100.00;95216.06;10548608;28;2418;-79
2021/10/05 01:34:37;;;;;;;;;;;11.80;99.90;;;10.87;100.00;95209.00;10541639;28;2101;-78
2021/10/05 01:39:40;;;;;;;;;;;11.80;99.90;;;10.88;100.00;95221.34;10546386;28;2026;-78
2021/10/05 01:44:44;;;;;;;;;;;11.90;99.90;;;10.89;100.00;95193.41;10548780;28;1926;-79
2021/10/05 01:49:47;;;;;;;;;;;11.90;99.90;;;10.82;100.00;95181.09;10541745;28;1979;-78
2021/10/05 01:54:50;;;;;;;;;;;11.80;99.90;;;10.77;100.00;95172.31;10549482;28;2078;-79
2021/10/05 01:59:52;;;;;;;;;;;11.80;99.90;;;10.79;100.00;95165.53;10549254;28;1995;-79
2021/10/05 02:04:56;;;;;;;;;;;11.80;99.90;;;10.66;100.00;95168.94;10546950;28;2018;-79
2021/10/05 02:09:58;;;;;;;;;;;11.70;99.90;;;10.57;100.00;95141.13;10549998;28;2040;-78
2021/10/05 02:15:01;;;;;;;;;;;11.50;99.90;;;10.51;100.00;95134.22;10543449;28;2068;-79
2021/10/05 02:20:04;;;;;;;;;;;11.60;99.90;;;10.57;100.00;95141.13;10548393;28;2053;-78
2021/10/05 02:25:08;;;;;;;;;;;11.50;99.90;;;10.58;100.00;95147.28;10553113;28;2057;-79
2021/10/05 02:30:11;;;;;;;;;;;11.60;99.90;;;10.63;100.00;95129.22;10559678;28;2030;-79
2021/10/05 02:35:14;;;;;;;;;;;11.60;99.90;;;10.60;100.00;95126.28;10554659;28;2010;-80
2021/10/05 02:40:17;;;;;;;;;;;11.60;99.90;;;10.67;100.00;95108.72;10549341;28;2137;-79
2021/10/05 02:45:20;;;;;;;;;;;11.70;99.90;;;10.60;100.00;95092.16;10535978;28;1982;-78
2021/10/05 02:50:23;;;;;;;;;;;11.70;99.90;;;10.55;100.00;95093.00;10541514;28;2081;-79
2021/10/05 02:55:25;;;;;;;;;;;11.60;99.90;;;10.53;100.00;95097.09;10542490;28;2041;-79
2021/10/05 03:00:28;;;;;;;;;;;11.50;99.90;;;10.65;100.00;95075.97;10538902;28;2046;-79
2021/10/05 03:05:36;;;;;;;;;;;11.60;99.90;;;10.45;100.00;95052.84;10537587;28;1962;-81
2021/10/05 03:10:39;;;;;;;;;;;11.50;99.90;;;10.37;100.00;95033.88;10541211;28;2168;-80
2021/10/05 03:15:42;;;;;;;;;;;11.50;99.90;;;10.42;100.00;95066.84;10536105;28;2073;-79
2021/10/05 03:20:45;;;;;;;;;;;11.40;99.90;;;10.50;100.00;95060.06;10539738;28;2410;-79
2021/10/05 03:25:47;;;;;;;;;;;11.50;99.90;;;10.53;100.00;95056.78;10560243;28;2019;-80
2021/10/05 03:30:50;;;;;;;;;;;11.50;99.90;;;10.43;100.00;95048.84;10543592;28;2034;-78
2021/10/05 03:35:53;;;;;;;;;;;11.50;99.90;;;10.39;100.00;95053.22;10543210;28;2026;-78
2021/10/05 03:40:56;;;;;;;;;;;11.40;99.90;;;10.45;100.00;95047.47;10545842;28;2111;-79
2021/10/05 03:45:59;;;;;;;;;;;11.40;99.90;;;10.40;100.00;95038.69;10557404;28;2136;-79
2021/10/05 03:51:02;;;;;;;;;;;11.50;99.90;;;10.46;100.00;95048.28;10540945;28;2064;-79
2021/10/05 03:56:05;;;;;;;;;;;11.40;99.90;;;10.58;100.00;95045.16;10531539;28;1965;-80
2021/10/05 04:01:08;;;;;;;;;;;11.50;99.90;;;10.67;100.00;95046.09;10530890;28;2041;-79
2021/10/05 04:06:11;;;;;;;;;;;11.60;99.90;;;10.55;100.00;95038.47;10537208;28;2101;-79
2021/10/05 04:11:14;;;;;;;;;;;11.60;99.90;;;10.52;100.00;95047.13;10551895;28;1975;-79
2021/10/05 04:16:17;;;;;;;;;;;11.50;99.90;;;10.52;100.00;95034.47;10538819;28;2037;-80
2021/10/05 04:21:20;;;;;;;;;;;11.50;99.90;;;10.53;100.00;95037.97;10536528;28;1911;-80
2021/10/05 04:26:22;;;;;;;;;;;11.50;99.90;;;10.57;100.00;95038.19;10535296;28;1860;-80
2021/10/05 04:31:25;;;;;;;;;;;11.60;99.90;;;10.59;100.00;95052.13;10535730;28;1918;-80
2021/10/05 04:36:28;;;;;;;;;;;11.60;99.90;;;10.60;100.00;95054.53;10541678;28;1893;-80
2021/10/05 04:41:31;;;;;;;;;;;11.60;99.90;;;10.64;100.00;95050.19;10533095;28;2255;-80
2021/10/05 04:46:34;;;;;;;;;;;11.60;99.90;;;10.67;100.00;95036.13;10535807;28;1970;-80
2021/10/05 04:51:37;;;;;;;;;;;11.60;99.90;;;10.62;100.00;95046.97;10534037;28;1942;-80
2021/10/05 04:56:40;;;;;;;;;;;11.60;99.90;;;10.64;100.00;95047.47;10541253;28;1979;-81
2021/10/05 05:01:43;;;;;;;;;;;11.60;99.90;;;10.57;100.00;95052.44;10547894;28;1942;-79
2021/10/05 05:06:46;;;;;;;;;;;11.60;99.90;;;10.58;100.00;95050.53;10549590;28;1852;-79
2021/10/05 05:11:48;;;;;;;;;;;11.50;99.90;;;10.56;100.00;95064.28;10552243;28;1908;-80
2021/10/05 05:16:51;;;;;;;;;;;11.50;99.90;;;10.60;100.00;95065.28;10542537;28;1932;-79
2021/10/05 05:21:57;;;;;;;;;;;11.50;99.90;;;10.58;100.00;95067.47;10556075;28;1883;-81
2021/10/05 05:27:00;;;;;;;;;;;11.50;99.90;;;10.54;100.00;95077.97;10553966;28;1939;-80
2021/10/05 05:32:03;;;;;;;;;;;11.50;99.90;;;10.54;100.00;95066.44;10560109;28;2033;-79
2021/10/05 05:37:06;;;;;;;;;;;11.50;99.90;;;10.52;100.00;95065.94;10546941;28;1974;-80
2021/10/05 05:42:09;;;;;;;;;;;11.50;99.90;;;10.43;100.00;95070.34;10549384;28;1948;-78
2021/10/05 05:47:12;;;;;;;;;;;11.40;99.90;;;10.38;100.00;95078.50;10519632;28;1837;-81
2021/10/05 05:52:15;;;;;;;;;;;11.40;99.90;;;10.47;100.00;95069.47;10535548;28;1931;-79
2021/10/05 05:57:18;;;;;;;;;;;11.40;99.90;;;10.56;100.00;95072.34;10551876;28;1717;-81
2021/10/05 06:02:20;;;;;;;;;;;11.50;99.90;;;10.59;100.00;95079.81;10554397;28;1949;-79
2021/10/05 06:07:24;;;;;;;;;;;11.50;99.90;;;10.60;100.00;95081.41;10537640;28;2051;-77
2021/10/05 06:12:37;;;;;;;;;;;11.60;99.90;;;10.68;100.00;95091.50;10536358;28;1868;-75
2021/10/05 06:17:41;;;;;;;;;;;11.60;99.90;;;10.68;100.00;95088.00;10526571;28;1995;-73
2021/10/05 06:22:43;;;;;;;;;;;11.70;99.90;;;10.66;100.00;95072.19;10524564;28;1988;-75
2021/10/05 06:27:46;;;;;;;;;;;11.70;99.90;;;10.64;100.00;95066.31;10525219;28;1881;-74
2021/10/05 06:32:53;;;;;;;;;;;11.60;99.90;;;10.70;100.00;95065.13;10520503;28;1876;-73
2021/10/05 06:37:56;;;;;;;;;;;11.60;99.90;;;10.79;100.00;95084.88;10527279;28;2211;-74
2021/10/05 06:42:59;;;;;;;;;;;11.70;99.90;;;10.85;100.00;95098.25;10527287;28;2040;-75
2021/10/05 06:48:02;;;;;;;;;;;11.80;99.90;;;10.99;100.00;95118.72;10524074;28;1943;-72
2021/10/05 06:53:05;;;;;;;;;;;11.90;99.90;;;11.12;100.00;95113.72;10519842;28;1953;-74
2021/10/05 06:58:08;;;;;;;;;;;12.00;99.90;;;11.09;100.00;95093.59;10520400;28;1955;-74
2021/10/05 07:03:10;;;;;;;;;;;12.10;99.90;;;11.24;100.00;95096.03;10521018;28;1955;-75
2021/10/05 07:08:14;;;;;;;;;;;12.10;99.90;;;11.58;100.00;95121.88;10526811;28;2115;-74
2021/10/05 07:13:17;;;;;;;;;;;12.30;99.90;;;11.62;100.00;95123.66;10523833;28;1970;-75
2021/10/05 07:18:20;;;;;;;;;;;12.50;99.90;;;11.88;100.00;95110.56;10517519;28;2058;-75
2021/10/05 07:23:23;;;;;;;;;;;12.60;99.90;;;11.86;100.00;95107.38;10517375;28;1984;-77
2021/10/05 07:28:46;;;;;;;;;;;12.70;99.90;;;11.84;100.00;95103.38;10525036;28;2188;-76
2021/10/05 07:33:48;;;;;;;;;;;12.80;99.90;;;12.30;100.00;95115.97;10523980;28;1876;-75
2021/10/05 07:38:51;;;;;;;;;;;12.90;99.90;;;12.67;100.00;95131.91;10522821;28;1992;-75
2021/10/05 07:43:54;;;;;;;;;;;13.30;99.90;;;12.49;100.00;95134.75;10514198;28;2164;-75
2021/10/05 07:48:57;;;;;;;;;;;13.30;99.90;;;12.40;100.00;95126.53;10519940;28;1912;-74
2021/10/05 07:54:00;;;;;;;;;;;13.30;99.90;;;12.70;100.00;95093.53;10522620;28;1830;-76
2021/10/05 07:59:03;;;;;;;;;;;13.40;99.90;;;12.98;100.00;95094.28;10523586;28;1947;-74
2021/10/05 08:04:06;;;;;;;;;;;13.60;99.90;;;13.22;100.00;95077.81;10521122;28;1914;-75
2021/10/05 08:09:09;;;;;;;;;;;13.80;99.90;;;13.10;100.00;95085.63;10529924;28;1807;-74
2021/10/05 08:14:12;;;;;;;;;;;13.80;99.90;;;13.20;100.00;95084.59;10515090;28;1868;-74
2021/10/05 08:19:15;;;;;;;;;;;13.90;99.90;;;13.11;100.00;95098.03;10520483;28;2055;-75
2021/10/05 08:24:19;;;;;;;;;;;13.90;99.90;;;13.01;100.00;95124.44;10515926;28;1921;-74
2021/10/05 08:29:22;;;;;;;;;;;13.90;99.90;;;12.89;100.00;95125.78;10522283;28;1836;-74
2021/10/05 08:34:25;;;;;;;;;;;13.90;99.90;;;12.97;100.00;95137.72;10521137;28;1825;-73
2021/10/05 08:39:27;;;;;;;;;;;13.80;99.90;;;13.07;100.00;95123.22;10527059;28;1876;-73
2021/10/05 08:44:30;;;;;;;;;;;13.90;99.90;;;13.42;100.00;95117.03;10522957;28;1898;-68
2021/10/05 08:49:33;;;;;;;;;;;14.10;99.90;;;13.70;100.00;95130.38;10524786;28;1887;-68
2021/10/05 08:54:36;;;;;;;;;;;14.40;99.90;;;13.29;100.00;95104.38;10523150;28;1849;-74
2021/10/05 08:59:39;;;;;;;;;;;14.30;99.90;;;13.16;100.00;95102.50;10528360;28;1897;-74
2021/10/05 09:04:50;;;;;;;;;;;14.10;99.90;;;12.90;100.00;95092.28;10530234;28;1922;-74
2021/10/05 09:09:53;;;;;;;;;;;13.90;99.90;;;12.95;100.00;95081.41;10535007;28;2211;-73
2021/10/05 09:14:56;;;;;;;;;;;13.70;99.90;;;13.16;100.00;95076.31;10532234;28;1919;-73
2021/10/05 09:19:59;;;;;;;;;;;13.90;99.90;;;13.16;100.00;95075.50;10531075;28;1883;-72
2021/10/05 09:25:02;;;;;;;;;;;14.00;99.90;;;12.97;100.00;95103.47;10528134;28;1918;-74
2021/10/05 09:30:05;;;;;;;;;;;13.90;99.90;;;13.01;100.00;95109.06;10530476;28;1892;-73
2021/10/05 09:35:08;;;;;;;;;;;13.90;99.90;;;12.99;100.00;95113.97;10528718;28;1864;-75
2021/10/05 09:40:11;;;;;;;;;;;13.90;99.90;;;13.82;100.00;95094.72;10529960;28;1981;-75
2021/10/05 09:45:14;;;;;;;;;;;14.20;99.90;;;13.83;100.00;95091.69;10526695;28;1957;-76
2021/10/05 09:50:17;;;;;;;;;;;14.50;99.90;;;13.94;100.00;95097.63;10530204;28;1930;-75
2021/10/05 09:55:20;;;;;;;;;;;14.60;99.90;;;13.70;100.00;95125.00;10530817;28;1854;-74
2021/10/05 10:00:23;;;;;;;;;;;14.70;99.90;;;14.13;100.00;95119.00;10524425;28;1968;-76
2021/10/05 10:05:26;;;;;;;;;;;14.80;99.90;;;14.00;100.00;95108.00;10527221;28;1905;-75
2021/10/05 10:10:29;;;;;;;;;;;14.80;99.90;;;14.19;98.76;95104.25;10539432;28;1985;-78
2021/10/05 10:15:32;;;;;;;;;;;14.80;99.90;;;15.00;94.72;95091.06;10569073;28;1574;-80
2021/10/05 10:20:35;;;;;;;;;;;15.20;99.90;;;15.06;91.14;95083.59;10542883;28;1913;-77
2021/10/05 10:25:37;;;;;;;;;;;15.50;99.90;;;14.55;92.73;95075.09;10536389;28;1956;-79
2021/10/05 10:30:40;;;;;;;;;;;15.40;99.90;;;14.87;93.98;95070.38;10535343;28;1836;-79
2021/10/05 10:35:43;;;;;;;;;;;15.40;99.90;;;15.25;92.70;95073.22;10539469;28;1951;-79
2021/10/05 10:40:46;;;;;;;;;;;15.70;99.90;;;15.08;93.74;95082.19;10540915;28;1771;-79
2021/10/05 10:45:49;;;;;;;;;;;15.80;99.90;;;14.72;94.50;95079.75;10533219;28;1921;-80
2021/10/05 10:50:55;;;;;;;;;;;15.60;99.90;;;14.24;96.53;95085.97;10542760;28;1799;-80
2021/10/05 10:55:58;;;;;;;;;;;15.40;99.90;;;13.92;96.94;95100.63;10540254;28;1885;-79
2021/10/05 11:01:01;;;;;;;;;;;15.10;99.90;;;13.58;97.96;95112.03;10545842;28;1579;-80
2021/10/05 11:06:04;;;;;;;;;;;14.80;99.90;;;14.23;95.99;95124.13;10561318;28;1955;-79
2021/10/05 11:11:07;;;;;;;;;;;14.70;99.90;;;14.41;91.82;95127.69;10541026;28;1934;-73
2021/10/05 11:16:10;;;;;;;;;;;15.10;99.90;;;14.45;92.13;95132.19;10527799;28;1856;-76
2021/10/05 11:21:13;;;;;;;;;;;15.20;99.90;;;14.09;94.59;95126.94;10536197;28;1893;-76
2021/10/05 11:26:15;;;;;;;;;;;15.00;99.90;;;14.56;91.16;95125.38;10536295;28;1921;-75
2021/10/05 11:31:18;;;;;;;;;;;15.10;99.90;;;14.88;89.07;95126.88;10544635;28;1820;-76
2021/10/05 11:36:22;;;;;;;;;;;15.40;99.90;;;14.61;90.00;95129.84;10538942;28;1474;-75
2021/10/05 11:41:25;;;;;;;;;;;15.40;99.90;;;15.05;88.49;95131.53;10525237;28;1468;-75
2021/10/05 11:46:28;;;;;;;;;;;15.60;99.90;;;14.52;90.16;95132.53;10518526;28;1998;-75
2021/10/05 11:51:31;;;;;;;;;;;15.50;99.90;;;14.59;89.41;95129.38;10520668;28;2203;-74
2021/10/05 11:56:34;;;;;;;;;;;15.50;99.90;;;14.21;91.05;95129.06;10523717;28;1905;-75
2021/10/05 12:01:37;;;;;;;;;;;15.30;99.90;;;13.96;92.40;95139.44;10527305;28;1893;-76
2021/10/05 12:06:40;;;;;;;;;;;15.10;99.90;;;14.53;88.16;95122.53;10525991;28;1886;-74
2021/10/05 12:11:44;;;;;;;;;;;15.10;99.90;;;14.69;86.03;95112.84;10526472;28;1873;-79
2021/10/05 12:16:47;;;;;;;;;;;15.40;99.90;;;15.81;80.82;95116.69;10526435;28;1864;-78
2021/10/05 12:21:50;;;;;;;;;;;15.90;99.90;;;15.80;78.49;95123.22;10530977;28;1987;-77
2021/10/05 12:26:53;;;;;;;;;;;16.20;99.90;;;15.02;82.27;95118.63;10524150;28;1851;-76
2021/10/05 12:32:04;;;;;;;;;;;16.00;99.90;;;15.40;82.73;95128.84;10526781;28;1882;-76
2021/10/05 12:37:07;;;;;;;;;;;15.90;99.90;;;15.72;78.92;95121.34;10513868;28;1852;-74
2021/10/05 12:42:30;;;;;;;;;;;16.30;99.90;;;16.04;80.04;95128.91;10523432;28;2005;-75
2021/10/05 12:47:33;;;;;;;;;;;16.60;99.90;;;16.23;79.40;95119.59;10526368;28;1838;-75
2021/10/05 12:52:35;;;;;;;;;;;16.60;99.90;;;15.78;74.98;95126.25;10524908;28;1848;-75
2021/10/05 12:57:38;;;;;;;;;;;16.70;99.90;;;15.45;77.95;95114.31;10519615;28;1925;-76
2021/10/05 13:02:41;;;;;;;;;;;16.30;99.90;;;14.85;82.03;95126.72;10520078;28;1914;-77
2021/10/05 13:07:44;;;;;;;;;;;16.00;99.90;;;15.15;82.56;95127.72;10520595;28;1923;-77
2021/10/05 13:12:47;;;;;;;;;;;15.90;99.90;;;15.31;82.03;95134.22;10537649;28;2408;-78
2021/10/05 13:18:03;;;;;;;;;;;16.00;99.90;;;15.54;79.59;95136.78;10545293;28;1901;-77
2021/10/05 13:23:06;;;;;;;;;;;16.20;99.90;;;15.94;77.77;95129.25;10539297;28;1973;-77
2021/10/05 13:28:10;;;;;;;;;;;16.40;99.90;;;15.85;79.25;95125.78;10517529;28;1999;-74
2021/10/05 13:33:13;;;;;;;;;;;16.60;99.90;;;15.97;78.76;95127.78;10516578;28;1911;-75
2021/10/05 13:38:17;;;;;;;;;;;16.70;99.90;;;15.70;77.36;95118.13;10520073;28;1880;-75
2021/10/05 13:43:20;;;;;;;;;;;16.70;99.90;;;15.29;81.09;95116.72;10515196;28;1950;-74
2021/10/05 13:48:23;;;;;;;;;;;16.40;99.90;;;15.13;80.76;95111.78;10511404;28;1848;-73
2021/10/05 13:53:26;;;;;;;;;;;16.10;99.90;;;15.34;79.94;95122.00;10528280;28;2251;-73
2021/10/05 13:58:29;;;;;;;;;;;16.10;99.90;;;15.56;80.84;95113.66;10523602;28;1977;-74
2021/10/05 14:03:33;;;;;;;;;;;16.20;99.90;;;15.83;77.75;95128.78;10528289;28;1973;-74
2021/10/05 14:08:36;;;;;;;;;;;16.50;99.90;;;16.04;78.33;95126.19;10532103;28;1857;-74
2021/10/05 14:13:39;;;;;;;;;;;16.60;99.90;;;15.94;78.08;95129.25;10530411;28;1799;-74
2021/10/05 14:18:42;;;;;;;;;;;16.70;99.90;;;15.63;78.92;95135.69;10523276;28;1999;-74
2021/10/05 14:23:45;;;;;;;;;;;16.60;99.90;;;15.37;80.90;95129.47;10524206;28;1901;-76
2021/10/05 14:28:48;;;;;;;;;;;16.50;99.90;;;15.46;81.36;95142.97;10529952;28;1931;-72
2021/10/05 14:33:51;;;;;;;;;;;16.40;99.90;;;15.16;82.08;95137.44;10526630;28;1887;-74
2021/10/05 14:38:53;;;;;;;;;;;16.20;99.90;;;14.78;83.76;95146.13;10521021;28;1888;-75
2021/10/05 14:43:56;;;;;;;;;;;15.90;99.90;;;14.58;85.88;95147.50;10518882;28;2038;-76
2021/10/05 14:49:00;;;;;;;;;;;15.60;99.90;;;14.49;88.02;95151.28;10537218;28;1936;-77
2021/10/05 14:54:03;;;;;;;;;;;15.50;99.90;;;14.20;95.92;95159.91;10540792;28;1923;-76
2021/10/05 14:59:06;;;;;;;;;;;15.30;99.90;;;13.65;100.00;95165.63;10532702;28;1883;-77
2021/10/05 15:04:08;;;;;;;;;;;15.00;99.90;;;13.28;100.00;95177.56;10530603;28;2023;-76
2021/10/05 15:09:13;;;;;;;;;;;14.60;99.90;;;12.98;100.00;95174.44;10530373;28;1934;-76
2021/10/05 15:14:15;;;;;;;;;;;14.30;99.90;;;12.86;100.00;95166.84;10526790;28;1864;-77
2021/10/05 15:19:18;;;;;;;;;;;14.00;99.90;;;12.62;100.00;95172.47;10526389;28;1975;-77
2021/10/05 15:24:21;;;;;;;;;;;13.90;99.90;;;12.30;100.00;95177.97;10527440;28;1977;-75
2021/10/05 15:29:24;;;;;;;;;;;13.60;99.90;;;12.18;100.00;95183.84;10525977;28;1891;-76
2021/10/05 15:34:27;;;;;;;;;;;13.30;99.90;;;12.04;100.00;95194.59;10522095;28;1915;-78
2021/10/05 15:39:32;;;;;;;;;;;13.20;99.90;;;12.00;100.00;95200.84;10538251;28;1958;-79
2021/10/05 15:44:36;;;;;;;;;;;13.10;99.90;;;11.98;100.00;95213.84;10536308;28;2029;-80
2021/10/05 15:49:40;;;;;;;;;;;13.10;99.90;;;12.03;100.00;95201.06;10538719;28;1955;-81
2021/10/05 15:54:43;;;;;;;;;;;13.10;99.90;;;12.00;100.00;95200.84;10537260;28;1867;-80
2021/10/05 15:59:45;;;;;;;;;;;13.00;99.90;;;12.02;100.00;95196.75;10540751;28;2078;-74
2021/10/05 16:04:50;;;;;;;;;;;13.10;99.90;;;11.96;100.00;95199.84;10520187;28;1967;-78
2021/10/05 16:09:52;;;;;;;;;;;13.10;99.90;;;11.95;100.00;95201.75;10529510;28;1908;-75
2021/10/05 16:14:55;;;;;;;;;;;13.00;99.90;;;11.96;100.00;95205.22;10527346;28;1844;-76
2021/10/05 16:19:58;;;;;;;;;;;13.00;99.90;;;11.98;100.00;95205.75;10536389;28;2004;-75
2021/10/05 16:25:01;;;;;;;;;;;13.00;99.90;;;11.98;100.00;95205.75;10534072;28;1973;-75
2021/10/05 16:30:04;;;;;;;;;;;13.00;99.90;;;11.94;100.00;95207.44;10535844;28;1995;-75
2021/10/05 16:35:07;;;;;;;;;;;13.00;99.90;;;11.93;100.00;95200.44;10537117;28;2375;-77
2021/10/05 16:40:09;;;;;;;;;;;12.90;99.90;;;11.90;100.00;95205.34;10526196;28;1829;-76
2021/10/05 16:45:12;;;;;;;;;;;12.90;99.90;;;11.86;100.00;95209.72;10525016;28;1979;-77
2021/10/05 16:50:15;;;;;;;;;;;12.90;99.90;;;11.84;100.00;95217.28;10520156;28;1884;-75
2021/10/05 16:55:18;;;;;;;;;;;12.80;99.90;;;11.80;100.00;95216.25;10524982;28;1911;-78
2021/10/05 17:00:21;;;;;;;;;;;12.80;99.90;;;11.81;100.00;95217.06;10514893;28;2063;-75
2021/10/05 17:05:24;;;;;;;;;;;12.80;99.90;;;11.77;100.00;95211.47;10519379;28;1982;-75
2021/10/05 17:10:27;;;;;;;;;;;12.80;99.90;;;11.75;100.00;95226.28;10524087;28;1987;-78
2021/10/05 17:15:30;;;;;;;;;;;12.80;99.90;;;11.74;100.00;95222.81;10547584;28;1860;-79
2021/10/05 17:20:33;;;;;;;;;;;12.80;99.90;;;11.76;100.00;95228.69;10535199;28;1931;-81
2021/10/05 17:25:36;;;;;;;;;;;12.80;99.90;;;11.74;100.00;95219.31;10548241;28;1899;-80
2021/10/05 17:30:39;;;;;;;;;;;12.80;99.90;;;11.72;100.00;95224.19;10551682;28;2105;-81
2021/10/05 17:35:42;;;;;;;;;;;12.70;99.90;;;11.72;100.00;95230.38;10545136;28;1774;-79
2021/10/05 17:40:45;;;;;;;;;;;12.70;99.90;;;11.72;100.00;95227.69;10538901;28;1990;-80
2021/10/05 17:45:48;;;;;;;;;;;12.70;99.90;;;11.68;100.00;95229.34;10533908;28;2002;-80
2021/10/05 17:50:51;;;;;;;;;;;12.70;99.90;;;11.68;100.00;95239.34;10543466;28;2011;-80
2021/10/05 17:55:54;;;;;;;;;;;12.70;99.90;;;11.66;100.00;95236.13;10556577;28;2227;-79
2021/10/05 18:00:57;;;;;;;;;;;12.70;99.90;;;11.67;100.00;95243.13;10546722;28;1998;-78
2021/10/05 18:06:00;;;;;;;;;;;12.70;99.90;;;11.68;100.00;95250.09;10548753;28;1939;-80
2021/10/05 18:11:03;;;;;;;;;;;12.70;99.90;;;11.72;100.00;95246.53;10538543;28;1979;-79
2021/10/05 18:16:05;;;;;;;;;;;12.70;99.90;;;11.67;100.00;95235.03;10528798;28;2257;-81
2021/10/05 18:21:08;;;;;;;;;;;12.70;99.90;;;11.69;100.00;95230.16;10520927;28;2018;-77
2021/10/05 18:26:11;;;;;;;;;;;12.70;99.90;;;11.67;100.00;95243.91;10540222;28;2021;-78
2021/10/05 18:31:14;;;;;;;;;;;12.70;99.90;;;11.62;100.00;95244.00;10532549;28;2038;-79
2021/10/05 18:36:18;;;;;;;;;;;12.70;99.90;;;11.60;100.00;95259.66;10559426;28;2032;-79
2021/10/05 18:41:22;;;;;;;;;;;12.60;99.90;;;11.56;100.00;95258.63;10557428;28;1328;-81
2021/10/05 18:46:25;;;;;;;;;;;12.60;99.90;;;11.59;100.00;95256.16;10553445;28;1890;-80
2021/10/05 18:51:28;;;;;;;;;;;12.60;99.90;;;11.58;100.00;95259.94;10552849;28;1939;-79
2021/10/05 18:56:31;;;;;;;;;;;12.60;99.90;;;11.61;100.00;95275.50;10529594;28;2216;-75
2021/10/05 19:01:35;;;;;;;;;;;12.70;99.90;;;11.57;100.00;95285.22;10527756;28;2479;-76
2021/10/05 19:06:38;;;;;;;;;;;12.60;99.90;;;11.54;100.00;95282.34;10526844;28;1994;-78
2021/10/05 19:11:41;;;;;;;;;;;12.60;99.90;;;11.57;100.00;95287.13;10525448;28;1938;-77
2021/10/05 19:16:44;;;;;;;;;;;12.60;99.90;;;11.54;100.00;95282.34;10529126;28;2348;-76
2021/10/05 19:21:46;;;;;;;;;;;12.60;99.90;;;11.56;100.00;95293.59;10531516;28;2269;-75
2021/10/05 19:26:49;;;;;;;;;;;12.60;99.90;;;11.54;100.00;95293.09;10533718;28;2208;-77
2021/10/05 19:31:52;;;;;;;;;;;12.60;99.90;;;11.55;100.00;95292.81;10516655;28;1988;-75
2021/10/05 19:36:55;;;;;;;;;;;12.60;99.90;;;11.60;100.00;95297.34;10531945;28;1966;-74
2021/10/05 19:42:00;;;;;;;;;;;12.60;99.90;;;11.60;100.00;95303.50;10543794;28;2022;-75
2021/10/05 19:47:03;;;;;;;;;;;12.70;99.90;;;11.59;100.00;95314.56;10534368;28;2026;-75
2021/10/05 19:52:08;;;;;;;;;;;12.70;99.90;;;11.58;100.00;95326.44;10543689;28;1928;-76
2021/10/05 19:57:11;;;;;;;;;;;12.70;99.90;;;11.62;100.00;95322.06;10537268;28;2212;-76
2021/10/05 20:02:14;;;;;;;;;;;12.70;99.90;;;11.64;100.00;95331.47;10536056;28;2016;-78
2021/10/05 20:07:18;;;;;;;;;;;12.70;99.90;;;11.68;100.00;95326.28;10538794;28;1984;-82
2021/10/05 20:12:21;;;;;;;;;;;12.70;99.90;;;11.69;100.00;95327.88;10537510;28;2114;-80
2021/10/05 20:17:24;;;;;;;;;;;12.70;99.90;;;11.66;100.00;95333.84;10538113;28;1905;-82
2021/10/05 20:22:33;;;;;;;;;;;12.70;99.90;;;11.64;100.00;95341.41;10546800;28;2050;-83
2021/10/05 20:27:41;;;;;;;;;;;12.70;99.90;;;11.61;100.00;95350.88;10569714;28;1960;-86
2021/10/05 20:33:08;;;;;;;;;;;12.70;99.90;;;11.53;100.00;95356.13;10568623;28;1898;-79
2021/10/05 20:38:11;;;;;;;;;;;12.60;99.90;;;11.49;100.00;95357.78;10556279;28;2019;-83
2021/10/05 20:43:14;;;;;;;;;;;12.50;99.90;;;11.49;100.00;95360.47;10548747;28;1652;-83
2021/10/05 20:48:17;;;;;;;;;;;12.50;99.90;;;11.46;100.00;95367.25;10559492;28;1894;-83
2021/10/05 20:53:20;;;;;;;;;;;12.50;99.90;;;11.43;100.00;95367.00;10560697;28;1909;-82
2021/10/05 20:58:23;;;;;;;;;;;12.50;99.90;;;11.42;100.00;95370.78;10581569;28;1610;-83
2021/10/05 21:03:26;;;;;;;;;;;12.50;99.90;;;11.41;100.00;95379.94;10585762;28;1759;-83
2021/10/05 21:08:29;;;;;;;;;;;12.40;99.90;;;11.42;100.00;95382.34;10588258;28;1890;-83
2021/10/05 21:13:31;;;;;;;;;;;12.40;99.90;;;11.38;100.00;95387.50;10577844;28;1908;-83
2021/10/05 21:18:34;;;;;;;;;;;12.40;99.90;;;11.29;100.00;95394.59;10574596;28;1959;-84
2021/10/05 21:23:37;;;;;;;;;;;12.40;99.90;;;11.27;100.00;95386.03;10575973;28;1716;-84
2021/10/05 21:28:40;;;;;;;;;;;12.40;99.90;;;11.28;100.00;95397.59;10585320;28;1894;-84
2021/10/05 21:33:43;;;;;;;;;;;12.30;99.90;;;11.27;100.00;95412.94;10573837;28;1867;-83
2021/10/05 21:38:46;;;;;;;;;;;12.30;99.90;;;11.27;100.00;95404.88;10584324;28;1831;-84
2021/10/05 21:43:49;;;;;;;;;;;12.30;99.90;;;11.31;100.00;95413.94;10575104;28;1822;-83
2021/10/05 21:48:52;;;;;;;;;;;12.30;99.90;;;11.28;100.00;95411.06;10586203;28;1980;-86
2021/10/05 21:53:55;;;;;;;;;;;12.30;99.90;;;11.26;100.00;95419.41;10585794;28;1629;-86
2021/10/05 21:58:58;;;;;;;;;;;12.30;99.90;;;11.28;100.00;95430.69;10589808;28;1850;-85
2021/10/05 22:04:04;;;;;;;;;;;12.30;99.90;;;11.27;100.00;95418.31;10584754;28;1827;-86
2021/10/05 22:09:07;;;;;;;;;;;12.30;99.90;;;11.24;100.00;95429.63;10571752;28;1898;-84
2021/10/05 22:14:10;;;;;;;;;;;12.30;99.90;;;11.20;100.00;95425.13;10567596;28;2167;-84
2021/10/05 22:19:13;;;;;;;;;;;12.20;99.90;;;11.21;100.00;95424.84;10577276;28;1892;-82
2021/10/05 22:24:16;;;;;;;;;;;12.20;99.90;;;11.22;100.00;95426.44;10574491;28;1943;-81
2021/10/05 22:29:19;;;;;;;;;;;12.20;99.90;;;11.15;100.00;95423.28;10578551;28;1890;-82
2021/10/05 22:34:22;;;;;;;;;;;12.20;99.90;;;11.10;100.00;95424.13;10580205;28;1763;-82
2021/10/05 22:39:25;;;;;;;;;;;12.20;99.90;;;11.12;100.00;95429.22;10579258;28;1788;-82
2021/10/05 22:44:28;;;;;;;;;;;12.20;99.90;;;11.08;100.00;95425.53;10575235;28;1993;-82
2021/10/05 22:49:30;;;;;;;;;;;12.10;99.90;;;11.07;100.00;95429.31;10552326;28;1916;-81
2021/10/05 22:54:33;;;;;;;;;;;12.10;99.90;;;11.04;100.00;95429.84;10547858;28;1923;-80
2021/10/05 22:59:36;;;;;;;;;;;12.10;99.90;;;11.03;100.00;95439.00;10552838;28;1788;-80
2021/10/05 23:04:39;;;;;;;;;;;12.10;99.90;;;10.99;100.00;95437.97;10559857;28;1914;-81